sensor_id;sensor_type;location;lat;lon;timestamp;pressure;altitude;pressure_sealevel;temperature;humidity
61359;BME280;47228;46.762;23.598;2023-04-01T00:01:12;95992.03;;;8.48;83.35
61359;BME280;47228;46.762;23.598;2023-04-01T00:03:41;95993.44;;;8.45;83.35
61359;BME280;47228;46.762;23.598;2023-04-01T00:06:13;95993.33;;;8.41;83.19
61359;BME280;47228;46.762;23.598;2023-04-01T00:08:42;95999.58;;;8.35;83.42
61359;BME280;47228;46.762;23.598;2023-04-01T00:11:10;95994.16;;;8.32;83.76
61359;BME280;47228;46.762;23.598;2023-04-01T00:13:38;95993.38;;;8.33;84.10
61359;BME280;47228;46.762;23.598;2023-04-01T00:16:07;95990.77;;;8.34;84.07
61359;BME280;47228;46.762;23.598;2023-04-01T00:18:47;95986.77;;;8.35;84.07
61359;BME280;47228;46.762;23.598;2023-04-01T00:21:16;95978.70;;;8.32;84.11
61359;BME280;47228;46.762;23.598;2023-04-01T00:23:44;95973.27;;;8.29;83.99
61359;BME280;47228;46.762;23.598;2023-04-01T00:26:12;95959.20;;;8.29;84.10
61359;BME280;47228;46.762;23.598;2023-04-01T00:28:41;95954.60;;;8.31;84.35
61359;BME280;47228;46.762;23.598;2023-04-01T00:31:13;95952.20;;;8.32;84.13
61359;BME280;47228;46.762;23.598;2023-04-01T00:33:42;95943.36;;;8.34;84.49
61359;BME280;47228;46.762;23.598;2023-04-01T00:36:14;95943.02;;;8.34;84.28
61359;BME280;47228;46.762;23.598;2023-04-01T00:38:42;95948.41;;;8.29;83.89
61359;BME280;47228;46.762;23.598;2023-04-01T00:41:12;95946.45;;;8.27;84.45
61359;BME280;47228;46.762;23.598;2023-04-01T00:43:45;95943.41;;;8.26;84.23
61359;BME280;47228;46.762;23.598;2023-04-01T00:46:13;95941.08;;;8.24;84.36
61359;BME280;47228;46.762;23.598;2023-04-01T00:48:45;95937.63;;;8.23;84.48
61359;BME280;47228;46.762;23.598;2023-04-01T00:51:21;95931.66;;;8.24;84.72
61359;BME280;47228;46.762;23.598;2023-04-01T00:53:52;95933.74;;;8.23;84.62
61359;BME280;47228;46.762;23.598;2023-04-01T00:56:32;95928.89;;;8.21;84.60
61359;BME280;47228;46.762;23.598;2023-04-01T00:59:28;95926.45;;;8.19;84.80
61359;BME280;47228;46.762;23.598;2023-04-01T01:01:54;95921.12;;;8.19;85.03
61359;BME280;47228;46.762;23.598;2023-04-01T01:04:27;95910.89;;;8.19;85.19
61359;BME280;47228;46.762;23.598;2023-04-01T01:15:53;95908.64;;;8.18;84.89
61359;BME280;47228;46.762;23.598;2023-04-01T01:18:52;95908.57;;;8.17;85.15
61359;BME280;47228;46.762;23.598;2023-04-01T01:27:04;95896.90;;;8.20;85.12
61359;BME280;47228;46.762;23.598;2023-04-01T01:35:32;95891.36;;;8.26;85.50
61359;BME280;47228;46.762;23.598;2023-04-01T01:38:14;95891.41;;;8.28;85.68
61359;BME280;47228;46.762;23.598;2023-04-01T01:40:46;95894.63;;;8.31;85.44
61359;BME280;47228;46.762;23.598;2023-04-01T01:43:19;95897.45;;;8.29;85.18
61359;BME280;47228;46.762;23.598;2023-04-01T01:45:52;95899.89;;;8.27;85.18
61359;BME280;47228;46.762;23.598;2023-04-01T01:48:23;95905.13;;;8.25;85.67
61359;BME280;47228;46.762;23.598;2023-04-01T01:50:52;95911.19;;;8.22;85.66
61359;BME280;47228;46.762;23.598;2023-04-01T01:53:20;95914.52;;;8.17;85.67
61359;BME280;47228;46.762;23.598;2023-04-01T01:55:49;95921.38;;;8.11;85.86
61359;BME280;47228;46.762;23.598;2023-04-01T01:58:25;95919.33;;;8.06;86.29
61359;BME280;47228;46.762;23.598;2023-04-01T02:01:06;95915.05;;;8.02;86.31
61359;BME280;47228;46.762;23.598;2023-04-01T02:03:37;95916.59;;;7.99;86.60
61359;BME280;47228;46.762;23.598;2023-04-01T02:06:08;95914.52;;;7.95;86.62
61359;BME280;47228;46.762;23.598;2023-04-01T02:11:27;95918.54;;;7.96;87.60
61359;BME280;47228;46.762;23.598;2023-04-01T02:14:25;95924.02;;;7.98;87.55
61359;BME280;47228;46.762;23.598;2023-04-01T02:16:56;95929.30;;;7.97;87.48
61359;BME280;47228;46.762;23.598;2023-04-01T02:19:29;95931.10;;;7.97;87.48
61359;BME280;47228;46.762;23.598;2023-04-01T02:22:02;95932.63;;;7.99;87.54
61359;BME280;47228;46.762;23.598;2023-04-01T02:24:33;95933.72;;;8.00;87.74
61359;BME280;47228;46.762;23.598;2023-04-01T02:27:03;95930.10;;;8.03;87.79
61359;BME280;47228;46.762;23.598;2023-04-01T02:29:31;95918.01;;;8.08;87.94
61359;BME280;47228;46.762;23.598;2023-04-01T02:32:00;95910.25;;;8.12;88.20
61359;BME280;47228;46.762;23.598;2023-04-01T02:34:29;95905.52;;;8.17;88.06
61359;BME280;47228;46.762;23.598;2023-04-01T02:36:57;95894.78;;;8.20;87.87
61359;BME280;47228;46.762;23.598;2023-04-01T02:39:25;95891.84;;;8.20;87.69
61359;BME280;47228;46.762;23.598;2023-04-01T02:41:53;95888.13;;;8.22;87.55
61359;BME280;47228;46.762;23.598;2023-04-01T02:44:21;95881.94;;;8.22;87.34
61359;BME280;47228;46.762;23.598;2023-04-01T02:46:49;95881.26;;;8.21;87.33
61359;BME280;47228;46.762;23.598;2023-04-01T02:49:17;95882.72;;;8.18;87.38
61359;BME280;47228;46.762;23.598;2023-04-01T02:51:45;95884.41;;;8.15;87.48
61359;BME280;47228;46.762;23.598;2023-04-01T02:54:13;95886.01;;;8.15;87.55
61359;BME280;47228;46.762;23.598;2023-04-01T02:56:42;95886.17;;;8.15;87.74
61359;BME280;47228;46.762;23.598;2023-04-01T02:59:09;95884.15;;;8.17;88.12
61359;BME280;47228;46.762;23.598;2023-04-01T03:01:37;95880.92;;;8.22;88.38
61359;BME280;47228;46.762;23.598;2023-04-01T03:04:06;95880.86;;;8.25;87.94
61359;BME280;47228;46.762;23.598;2023-04-01T03:06:34;95882.30;;;8.25;87.38
61359;BME280;47228;46.762;23.598;2023-04-01T03:09:02;95886.56;;;8.25;87.52
61359;BME280;47228;46.762;23.598;2023-04-01T03:11:31;95884.73;;;8.25;87.49
61359;BME280;47228;46.762;23.598;2023-04-01T03:13:58;95880.30;;;8.26;87.39
61359;BME280;47228;46.762;23.598;2023-04-01T03:16:26;95880.92;;;8.24;87.15
61359;BME280;47228;46.762;23.598;2023-04-01T03:18:54;95882.11;;;8.21;86.89
61359;BME280;47228;46.762;23.598;2023-04-01T03:21:24;95884.22;;;8.18;87.07
61359;BME280;47228;46.762;23.598;2023-04-01T03:23:53;95880.66;;;8.16;87.12
61359;BME280;47228;46.762;23.598;2023-04-01T03:26:20;95876.14;;;8.14;87.08
61359;BME280;47228;46.762;23.598;2023-04-01T03:28:49;95875.02;;;8.12;86.90
61359;BME280;47228;46.762;23.598;2023-04-01T03:31:17;95874.13;;;8.09;86.82
61359;BME280;47228;46.762;23.598;2023-04-01T03:33:45;95867.92;;;8.08;86.95
61359;BME280;47228;46.762;23.598;2023-04-01T03:36:13;95865.80;;;8.08;87.08
61359;BME280;47228;46.762;23.598;2023-04-01T03:38:42;95862.80;;;8.06;87.04
61359;BME280;47228;46.762;23.598;2023-04-01T03:41:15;95866.75;;;8.05;86.99
61359;BME280;47228;46.762;23.598;2023-04-01T03:43:43;95863.83;;;8.03;86.97
61359;BME280;47228;46.762;23.598;2023-04-01T03:46:17;95864.84;;;8.03;87.29
61359;BME280;47228;46.762;23.598;2023-04-01T03:48:45;95871.13;;;8.05;87.21
61359;BME280;47228;46.762;23.598;2023-04-01T03:51:14;95873.84;;;8.06;87.38
61359;BME280;47228;46.762;23.598;2023-04-01T03:53:42;95873.83;;;8.07;87.27
61359;BME280;47228;46.762;23.598;2023-04-01T03:56:10;95877.77;;;8.07;87.00
61359;BME280;47228;46.762;23.598;2023-04-01T03:58:38;95884.16;;;8.08;87.17
61359;BME280;47228;46.762;23.598;2023-04-01T04:01:18;95885.00;;;8.08;87.24
61359;BME280;47228;46.762;23.598;2023-04-01T04:03:46;95878.59;;;8.09;87.50
61359;BME280;47228;46.762;23.598;2023-04-01T04:06:18;95876.02;;;8.10;86.87
61359;BME280;47228;46.762;23.598;2023-04-01T04:08:46;95877.52;;;8.07;86.90
61359;BME280;47228;46.762;23.598;2023-04-01T04:11:18;95872.40;;;8.05;87.19
61359;BME280;47228;46.762;23.598;2023-04-01T04:13:47;95872.31;;;8.05;87.22
61359;BME280;47228;46.762;23.598;2023-04-01T04:16:18;95874.21;;;8.06;87.14
61359;BME280;47228;46.762;23.598;2023-04-01T04:18:46;95874.81;;;8.06;87.40
61359;BME280;47228;46.762;23.598;2023-04-01T04:21:15;95875.86;;;8.06;87.29
61359;BME280;47228;46.762;23.598;2023-04-01T04:23:43;95872.70;;;8.06;87.44
61359;BME280;47228;46.762;23.598;2023-04-01T04:26:15;95866.06;;;8.07;87.33
61359;BME280;47228;46.762;23.598;2023-04-01T04:28:43;95865.19;;;8.06;87.14
61359;BME280;47228;46.762;23.598;2023-04-01T04:31:11;95866.39;;;8.04;87.13
61359;BME280;47228;46.762;23.598;2023-04-01T04:33:40;95866.67;;;8.02;87.26
61359;BME280;47228;46.762;23.598;2023-04-01T04:36:11;95870.77;;;7.99;87.20
61359;BME280;47228;46.762;23.598;2023-04-01T04:38:45;95869.88;;;7.94;87.34
61359;BME280;47228;46.762;23.598;2023-04-01T04:41:15;95862.52;;;7.90;87.73
61359;BME280;47228;46.762;23.598;2023-04-01T04:43:52;95857.30;;;7.88;87.93
61359;BME280;47228;46.762;23.598;2023-04-01T04:46:21;95856.33;;;7.89;88.29
61359;BME280;47228;46.762;23.598;2023-04-01T04:48:49;95855.64;;;7.91;88.46
61359;BME280;47228;46.762;23.598;2023-04-01T04:51:19;95856.90;;;7.95;88.50
61359;BME280;47228;46.762;23.598;2023-04-01T04:53:51;95852.31;;;7.97;88.56
61359;BME280;47228;46.762;23.598;2023-04-01T04:56:24;95845.87;;;7.96;88.00
61359;BME280;47228;46.762;23.598;2023-04-01T04:58:53;95844.75;;;7.91;88.11
61359;BME280;47228;46.762;23.598;2023-04-01T05:01:21;95848.39;;;7.88;88.26
61359;BME280;47228;46.762;23.598;2023-04-01T05:03:49;95848.15;;;7.85;88.08
61359;BME280;47228;46.762;23.598;2023-04-01T05:06:18;95845.53;;;7.83;88.04
61359;BME280;47228;46.762;23.598;2023-04-01T05:08:48;95845.84;;;7.82;88.60
61359;BME280;47228;46.762;23.598;2023-04-01T05:11:19;95846.38;;;7.85;88.91
61359;BME280;47228;46.762;23.598;2023-04-01T05:13:48;95842.46;;;7.85;88.74
61359;BME280;47228;46.762;23.598;2023-04-01T05:16:18;95842.40;;;7.86;88.76
61359;BME280;47228;46.762;23.598;2023-04-01T05:18:47;95837.57;;;7.88;88.77
61359;BME280;47228;46.762;23.598;2023-04-01T05:21:15;95834.95;;;7.93;89.16
61359;BME280;47228;46.762;23.598;2023-04-01T05:23:43;95832.66;;;7.98;89.09
61359;BME280;47228;46.762;23.598;2023-04-01T05:26:13;95830.02;;;8.01;88.90
61359;BME280;47228;46.762;23.598;2023-04-01T05:28:41;95829.05;;;8.06;89.01
61359;BME280;47228;46.762;23.598;2023-04-01T05:31:09;95825.94;;;8.10;88.84
61359;BME280;47228;46.762;23.598;2023-04-01T05:33:37;95826.88;;;8.13;88.54
61359;BME280;47228;46.762;23.598;2023-04-01T05:36:15;95823.66;;;8.16;88.57
61359;BME280;47228;46.762;23.598;2023-04-01T05:38:44;95822.08;;;8.19;88.22
61359;BME280;47228;46.762;23.598;2023-04-01T05:41:14;95821.19;;;8.19;88.26
61359;BME280;47228;46.762;23.598;2023-04-01T05:43:43;95821.94;;;8.20;88.11
61359;BME280;47228;46.762;23.598;2023-04-01T05:46:11;95825.15;;;8.19;87.94
61359;BME280;47228;46.762;23.598;2023-04-01T05:48:39;95823.98;;;8.19;87.90
61359;BME280;47228;46.762;23.598;2023-04-01T05:51:12;95823.36;;;8.20;88.07
61359;BME280;47228;46.762;23.598;2023-04-01T05:53:41;95822.90;;;8.20;88.04
61359;BME280;47228;46.762;23.598;2023-04-01T05:56:09;95816.35;;;8.21;88.03
61359;BME280;47228;46.762;23.598;2023-04-01T05:58:38;95816.56;;;8.18;87.91
61359;BME280;47228;46.762;23.598;2023-04-01T06:01:10;95820.41;;;8.17;87.80
61359;BME280;47228;46.762;23.598;2023-04-01T06:03:43;95821.98;;;8.17;87.78
61359;BME280;47228;46.762;23.598;2023-04-01T06:06:23;95815.77;;;8.18;88.18
61359;BME280;47228;46.762;23.598;2023-04-01T06:08:53;95810.55;;;8.21;87.98
61359;BME280;47228;46.762;23.598;2023-04-01T06:11:32;95810.08;;;8.19;87.65
61359;BME280;47228;46.762;23.598;2023-04-01T06:20:49;95823.07;;;8.20;88.32
61359;BME280;47228;46.762;23.598;2023-04-01T06:40:00;95816.65;;;8.36;88.42
61359;BME280;47228;46.762;23.598;2023-04-01T06:43:12;95818.53;;;8.40;88.55
61359;BME280;47228;46.762;23.598;2023-04-01T06:46:13;95817.42;;;8.44;88.56
61359;BME280;47228;46.762;23.598;2023-04-01T06:49:02;95815.87;;;8.48;88.59
61359;BME280;47228;46.762;23.598;2023-04-01T06:54:52;95813.25;;;8.56;87.90
61359;BME280;47228;46.762;23.598;2023-04-01T06:57:34;95817.54;;;8.55;88.03
61359;BME280;47228;46.762;23.598;2023-04-01T07:00:14;95819.42;;;8.59;88.31
61359;BME280;47228;46.762;23.598;2023-04-01T07:02:55;95823.23;;;8.65;88.44
61359;BME280;47228;46.762;23.598;2023-04-01T07:05:30;95826.61;;;8.71;88.19
61359;BME280;47228;46.762;23.598;2023-04-01T07:08:02;95823.56;;;8.73;87.57
61359;BME280;47228;46.762;23.598;2023-04-01T07:11:04;95824.36;;;8.75;87.72
61359;BME280;47228;46.762;23.598;2023-04-01T07:13:41;95828.75;;;8.77;87.43
61359;BME280;47228;46.762;23.598;2023-04-01T07:19:12;95828.27;;;8.77;86.88
61359;BME280;47228;46.762;23.598;2023-04-01T07:21:48;95833.63;;;8.73;86.61
61359;BME280;47228;46.762;23.598;2023-04-01T07:24:23;95834.95;;;8.69;86.75
61359;BME280;47228;46.762;23.598;2023-04-01T07:26:57;95831.91;;;8.65;86.57
61359;BME280;47228;46.762;23.598;2023-04-01T07:29:26;95831.48;;;8.61;86.30
61359;BME280;47228;46.762;23.598;2023-04-01T07:34:51;95830.10;;;8.60;86.91
61359;BME280;47228;46.762;23.598;2023-04-01T07:37:28;95830.80;;;8.61;86.85
61359;BME280;47228;46.762;23.598;2023-04-01T07:40:13;95830.15;;;8.58;86.87
61359;BME280;47228;46.762;23.598;2023-04-01T07:42:55;95832.69;;;8.55;87.01
61359;BME280;47228;46.762;23.598;2023-04-01T07:48:33;95824.61;;;8.51;87.47
61359;BME280;47228;46.762;23.598;2023-04-01T07:51:16;95825.84;;;8.55;87.75
61359;BME280;47228;46.762;23.598;2023-04-01T07:54:11;95825.44;;;8.60;88.03
61359;BME280;47228;46.762;23.598;2023-04-01T08:07:22;95831.38;;;8.83;87.77
61359;BME280;47228;46.762;23.598;2023-04-01T08:20:59;95831.46;;;9.00;87.52
61359;BME280;47228;46.762;23.598;2023-04-01T08:23:31;95831.70;;;9.00;86.94
61359;BME280;47228;46.762;23.598;2023-04-01T08:26:12;95825.09;;;9.03;87.18
61359;BME280;47228;46.762;23.598;2023-04-01T08:34:14;95813.46;;;9.11;86.83
61359;BME280;47228;46.762;23.598;2023-04-01T08:36:46;95809.16;;;9.16;87.12
61359;BME280;47228;46.762;23.598;2023-04-01T08:39:38;95813.58;;;9.25;87.11
61359;BME280;47228;46.762;23.598;2023-04-01T09:01:34;95793.57;;;10.42;88.58
61359;BME280;47228;46.762;23.598;2023-04-01T09:04:25;95800.94;;;10.57;87.33
61359;BME280;47228;46.762;23.598;2023-04-01T09:07:09;95801.48;;;10.67;86.11
61359;BME280;47228;46.762;23.598;2023-04-01T09:09:56;95800.15;;;10.75;85.70
61359;BME280;47228;46.762;23.598;2023-04-01T09:12:42;95802.04;;;10.81;85.33
61359;BME280;47228;46.762;23.598;2023-04-01T09:20:58;95787.31;;;11.03;83.84
61359;BME280;47228;46.762;23.598;2023-04-01T09:32:03;95778.34;;;11.15;83.44
61359;BME280;47228;46.762;23.598;2023-04-01T09:40:14;95767.45;;;11.19;81.68
61359;BME280;47228;46.762;23.598;2023-04-01T09:51:22;95754.02;;;11.34;81.69
61359;BME280;47228;46.762;23.598;2023-04-01T10:16:57;95746.60;;;11.66;79.43
61359;BME280;47228;46.762;23.598;2023-04-01T10:26:15;95753.55;;;11.69;78.27
61359;BME280;47228;46.762;23.598;2023-04-01T10:37:23;95759.66;;;11.83;78.65
61359;BME280;47228;46.762;23.598;2023-04-01T10:51:32;95750.44;;;11.93;78.44
61359;BME280;47228;46.762;23.598;2023-04-01T11:17:25;95737.46;;;11.76;77.26
61359;BME280;47228;46.762;23.598;2023-04-01T11:33:54;95735.80;;;11.75;77.18
61359;BME280;47228;46.762;23.598;2023-04-01T11:44:29;95723.84;;;11.51;76.61
61359;BME280;47228;46.762;23.598;2023-04-01T12:04:00;95725.67;;;11.15;76.20
61359;BME280;47228;46.762;23.598;2023-04-01T12:12:22;95722.23;;;11.12;76.80
61359;BME280;47228;46.762;23.598;2023-04-01T12:18:05;95722.59;;;11.20;77.67
61359;BME280;47228;46.762;23.598;2023-04-01T12:26:52;95724.77;;;11.42;78.72
61359;BME280;47228;46.762;23.598;2023-04-01T12:40:45;95733.61;;;11.80;78.35
61359;BME280;47228;46.762;23.598;2023-04-01T12:46:27;95733.03;;;11.85;77.75
61359;BME280;47228;46.762;23.598;2023-04-01T12:54:41;95725.86;;;11.93;76.56
61359;BME280;47228;46.762;23.598;2023-04-01T13:01:17;95727.67;;;12.04;77.16
61359;BME280;47228;46.762;23.598;2023-04-01T13:06:25;95725.16;;;12.14;76.00
61359;BME280;47228;46.762;23.598;2023-04-01T13:17:17;95727.70;;;12.13;75.40
61359;BME280;47228;46.762;23.598;2023-04-01T13:28:56;95725.48;;;12.82;73.75
61359;BME280;47228;46.762;23.598;2023-04-01T13:31:32;95721.33;;;12.83;72.37
61359;BME280;47228;46.762;23.598;2023-04-01T13:37:30;95716.89;;;12.71;72.10
61359;BME280;47228;46.762;23.598;2023-04-01T13:39:57;95720.14;;;12.62;71.90
61359;BME280;47228;46.762;23.598;2023-04-01T13:42:39;95724.77;;;12.55;71.99
61359;BME280;47228;46.762;23.598;2023-04-01T13:45:15;95726.15;;;12.53;72.20
61359;BME280;47228;46.762;23.598;2023-04-01T13:59:46;95709.28;;;12.83;71.11
61359;BME280;47228;46.762;23.598;2023-04-01T14:16:58;95707.77;;;12.89;70.53
61359;BME280;47228;46.762;23.598;2023-04-01T14:22:39;95709.31;;;12.88;69.99
61359;BME280;47228;46.762;23.598;2023-04-01T14:49:53;95711.21;;;12.41;70.28
61359;BME280;47228;46.762;23.598;2023-04-01T14:54:50;95711.81;;;12.28;70.75
61359;BME280;47228;46.762;23.598;2023-04-01T15:00:15;95710.65;;;12.15;70.29
61359;BME280;47228;46.762;23.598;2023-04-01T15:02:59;95712.27;;;12.10;70.63
61359;BME280;47228;46.762;23.598;2023-04-01T15:11:14;95708.16;;;12.02;70.59
61359;BME280;47228;46.762;23.598;2023-04-01T15:16:50;95705.86;;;12.02;71.08
61359;BME280;47228;46.762;23.598;2023-04-01T15:27:59;95712.02;;;11.93;70.45
61359;BME280;47228;46.762;23.598;2023-04-01T15:31:31;95710.02;;;11.84;70.49
61359;BME280;47228;46.762;23.598;2023-04-01T15:52:49;95739.11;;;11.28;71.39
61359;BME280;47228;46.762;23.598;2023-04-01T15:58:19;95745.40;;;11.19;71.57
61359;BME280;47228;46.762;23.598;2023-04-01T16:01:18;95744.02;;;11.17;71.90
61359;BME280;47228;46.762;23.598;2023-04-01T16:07:10;95748.42;;;11.08;72.22
61359;BME280;47228;46.762;23.598;2023-04-01T16:09:59;95750.76;;;11.03;72.75
61359;BME280;47228;46.762;23.598;2023-04-01T16:15:32;95751.48;;;10.98;72.78
61359;BME280;47228;46.762;23.598;2023-04-01T16:21:13;95761.25;;;11.04;73.41
61359;BME280;47228;46.762;23.598;2023-04-01T16:23:56;95761.52;;;11.04;73.26
61359;BME280;47228;46.762;23.598;2023-04-01T16:26:42;95759.84;;;11.03;72.92
61359;BME280;47228;46.762;23.598;2023-04-01T16:31:53;95766.44;;;10.99;73.26
61359;BME280;47228;46.762;23.598;2023-04-01T16:34:36;95765.02;;;10.96;73.42
61359;BME280;47228;46.762;23.598;2023-04-01T16:37:20;95767.02;;;10.94;73.39
61359;BME280;47228;46.762;23.598;2023-04-01T16:42:50;95775.16;;;10.85;72.67
61359;BME280;47228;46.762;23.598;2023-04-01T16:48:11;95780.23;;;10.78;73.50
61359;BME280;47228;46.762;23.598;2023-04-01T16:58:36;95787.72;;;10.71;73.26
61359;BME280;47228;46.762;23.598;2023-04-01T17:01:13;95791.43;;;10.71;73.37
61359;BME280;47228;46.762;23.598;2023-04-01T17:03:44;95789.25;;;10.71;73.40
61359;BME280;47228;46.762;23.598;2023-04-01T17:09:05;95794.77;;;10.72;74.03
61359;BME280;47228;46.762;23.598;2023-04-01T17:18:14;95798.48;;;10.67;74.07
61359;BME280;47228;46.762;23.598;2023-04-01T17:20:32;95799.80;;;10.66;73.81
61359;BME280;47228;46.762;23.598;2023-04-01T17:26:07;95805.58;;;10.65;74.45
61359;BME280;47228;46.762;23.598;2023-04-01T17:28:58;95808.80;;;10.64;74.48
61359;BME280;47228;46.762;23.598;2023-04-01T17:31:46;95812.63;;;10.61;74.86
61359;BME280;47228;46.762;23.598;2023-04-01T17:34:30;95813.88;;;10.56;75.25
61359;BME280;47228;46.762;23.598;2023-04-01T17:37:15;95816.60;;;10.53;75.83
61359;BME280;47228;46.762;23.598;2023-04-01T17:40:25;95816.83;;;10.48;76.34
61359;BME280;47228;46.762;23.598;2023-04-01T17:43:17;95814.25;;;10.44;76.96
61359;BME280;47228;46.762;23.598;2023-04-01T17:45:54;95820.48;;;10.39;77.28
61359;BME280;47228;46.762;23.598;2023-04-01T17:48:25;95823.48;;;10.35;77.34
61359;BME280;47228;46.762;23.598;2023-04-01T17:56:34;95828.27;;;10.19;78.10
61359;BME280;47228;46.762;23.598;2023-04-01T18:07:48;95839.96;;;10.06;78.82
61359;BME280;47228;46.762;23.598;2023-04-01T18:13:19;95842.50;;;9.99;78.82
61359;BME280;47228;46.762;23.598;2023-04-01T18:19:16;95845.58;;;9.94;79.45
61359;BME280;47228;46.762;23.598;2023-04-01T18:22:23;95851.26;;;9.92;79.55
61359;BME280;47228;46.762;23.598;2023-04-01T18:25:22;95855.49;;;9.88;79.52
61359;BME280;47228;46.762;23.598;2023-04-01T18:30:58;95859.88;;;9.81;79.79
61359;BME280;47228;46.762;23.598;2023-04-01T18:39:08;95865.77;;;9.73;80.26
61359;BME280;47228;46.762;23.598;2023-04-01T18:44:50;95869.48;;;9.72;80.38
61359;BME280;47228;46.762;23.598;2023-04-01T18:50:12;95881.42;;;9.68;80.55
61359;BME280;47228;46.762;23.598;2023-04-01T18:52:46;95883.59;;;9.63;80.39
61359;BME280;47228;46.762;23.598;2023-04-01T18:55:29;95885.21;;;9.60;80.31
61359;BME280;47228;46.762;23.598;2023-04-01T19:03:48;95887.98;;;9.51;80.73
61359;BME280;47228;46.762;23.598;2023-04-01T19:06:56;95890.80;;;9.46;80.82
61359;BME280;47228;46.762;23.598;2023-04-01T19:09:23;95895.35;;;9.42;81.08
61359;BME280;47228;46.762;23.598;2023-04-01T19:18:00;95897.25;;;9.37;81.33
61359;BME280;47228;46.762;23.598;2023-04-01T19:28:20;95900.57;;;9.38;81.36
61359;BME280;47228;46.762;23.598;2023-04-01T19:30:58;95901.80;;;9.40;81.40
61359;BME280;47228;46.762;23.598;2023-04-01T19:36:23;95904.52;;;9.39;81.41
61359;BME280;47228;46.762;23.598;2023-04-01T19:42:31;95912.84;;;9.40;81.24
61359;BME280;47228;46.762;23.598;2023-04-01T19:45:22;95914.35;;;9.39;81.16
61359;BME280;47228;46.762;23.598;2023-04-01T19:48:11;95913.05;;;9.35;81.19
61359;BME280;47228;46.762;23.598;2023-04-01T19:50:55;95910.84;;;9.34;81.43
61359;BME280;47228;46.762;23.598;2023-04-01T19:53:40;95908.33;;;9.33;81.45
61359;BME280;47228;46.762;23.598;2023-04-01T19:56:20;95908.00;;;9.33;81.34
61359;BME280;47228;46.762;23.598;2023-04-01T19:59:21;95905.98;;;9.32;81.38
61359;BME280;47228;46.762;23.598;2023-04-01T20:04:40;95908.84;;;9.29;81.10
61359;BME280;47228;46.762;23.598;2023-04-01T20:14:58;95904.52;;;9.26;81.05
61359;BME280;47228;46.762;23.598;2023-04-01T20:17:33;95907.73;;;9.25;81.05
61359;BME280;47228;46.762;23.598;2023-04-01T20:31:11;95913.13;;;9.15;81.08
61359;BME280;47228;46.762;23.598;2023-04-01T20:42:58;95916.02;;;9.04;80.64
61359;BME280;47228;46.762;23.598;2023-04-01T20:45:33;95913.21;;;9.03;80.61
61359;BME280;47228;46.762;23.598;2023-04-01T20:48:48;95913.11;;;9.00;80.70
61359;BME280;47228;46.762;23.598;2023-04-01T20:51:30;95912.77;;;8.98;81.07
61359;BME280;47228;46.762;23.598;2023-04-01T20:54:30;95914.51;;;8.97;81.39
61359;BME280;47228;46.762;23.598;2023-04-01T20:57:16;95918.40;;;8.98;81.56
61359;BME280;47228;46.762;23.598;2023-04-01T21:26:26;95927.66;;;9.00;80.55
61359;BME280;47228;46.762;23.598;2023-04-01T21:32:24;95928.47;;;8.92;80.93
61359;BME280;47228;46.762;23.598;2023-04-01T21:37:44;95933.42;;;8.87;80.85
61359;BME280;47228;46.762;23.598;2023-04-01T21:40:39;95937.01;;;8.85;80.93
61359;BME280;47228;46.762;23.598;2023-04-01T21:52:21;95937.23;;;8.79;80.07
61359;BME280;47228;46.762;23.598;2023-04-01T21:57:50;95937.81;;;8.79;79.94
61359;BME280;47228;46.762;23.598;2023-04-01T22:06:41;95940.65;;;8.81;79.74
61359;BME280;47228;46.762;23.598;2023-04-01T22:09:18;95941.68;;;8.80;79.51
61359;BME280;47228;46.762;23.598;2023-04-01T22:15:17;95943.27;;;8.77;79.86
61359;BME280;47228;46.762;23.598;2023-04-01T22:17:54;95944.89;;;8.76;79.74
61359;BME280;47228;46.762;23.598;2023-04-01T22:20:38;95944.56;;;8.73;79.66
61359;BME280;47228;46.762;23.598;2023-04-01T22:31:13;95947.73;;;8.67;79.80
61359;BME280;47228;46.762;23.598;2023-04-01T22:34:06;95950.63;;;8.64;79.81
61359;BME280;47228;46.762;23.598;2023-04-01T22:37:02;95950.29;;;8.62;80.02
61359;BME280;47228;46.762;23.598;2023-04-01T22:42:42;95955.98;;;8.59;80.01
61359;BME280;47228;46.762;23.598;2023-04-01T22:48:14;95953.00;;;8.60;80.06
61359;BME280;47228;46.762;23.598;2023-04-01T22:56:16;95962.08;;;8.57;79.64
61359;BME280;47228;46.762;23.598;2023-04-01T22:58:52;95958.63;;;8.57;79.67
61359;BME280;47228;46.762;23.598;2023-04-01T23:01:30;95960.38;;;8.57;79.59
61359;BME280;47228;46.762;23.598;2023-04-01T23:04:03;95958.47;;;8.56;79.64
61359;BME280;47228;46.762;23.598;2023-04-01T23:06:38;95960.42;;;8.57;79.49
61359;BME280;47228;46.762;23.598;2023-04-01T23:09:39;95964.54;;;8.56;79.63
61359;BME280;47228;46.762;23.598;2023-04-01T23:12:12;95968.67;;;8.54;79.37
61359;BME280;47228;46.762;23.598;2023-04-01T23:14:49;95965.50;;;8.53;79.37
61359;BME280;47228;46.762;23.598;2023-04-01T23:20:21;95964.73;;;8.53;79.51
61359;BME280;47228;46.762;23.598;2023-04-01T23:22:56;95964.56;;;8.54;79.71
61359;BME280;47228;46.762;23.598;2023-04-01T23:35:59;95977.48;;;8.40;79.31
61359;BME280;47228;46.762;23.598;2023-04-01T23:38:37;95978.60;;;8.36;79.34
61359;BME280;47228;46.762;23.598;2023-04-01T23:41:06;95979.06;;;8.32;79.41
61359;BME280;47228;46.762;23.598;2023-04-01T23:43:38;95976.98;;;8.29;79.49
61359;BME280;47228;46.762;23.598;2023-04-01T23:46:07;95978.25;;;8.25;79.83
61359;BME280;47228;46.762;23.598;2023-04-01T23:48:39;95982.12;;;8.22;80.04
61359;BME280;47228;46.762;23.598;2023-04-01T23:51:29;95976.04;;;8.20;80.24
61359;BME280;47228;46.762;23.598;2023-04-01T23:54:14;95978.48;;;8.19;80.51
61359;BME280;47228;46.762;23.598;2023-04-01T23:56:56;95977.60;;;8.19;80.47
61359;BME280;47228;46.762;23.598;2023-04-01T23:59:30;95980.86;;;8.18;80.20
